Agios Dimitrios, Greece

2:01 PM EEST on August 31, 2015 (GMT +0300)
IU0391U017 | | Change Station
CLOSE
Current Station
Personal Weather Station
Location: Agios Dimitrios, Athens
Elevation: 295 ft
Nearby Weather Stations

Elev 295 ft 37.93 °N, 23.73 °E | Updated 7 seconds ago

Clear
Clear
90.7 °F
Feels Like 90.7 °F
N
0.0
Wind Variable Wind from West
Gusts 0.7 mph

Today
High -- | Low -- °F
--% Chance of Precip.
Yesterday
High -- | Low -- °F
Precip. -- in
6:53 AM 7:56 PM
Waning Gibbous, 96% visible
Pressure 30.04 in
Visibility -9999.0 miles
Clouds
Dew Point 35.0 °F
Humidity 14%
Rainfall 0.00 in
Snow Depth Not available.
UV 0.0 out of 12
Pollen Not available.
Air Quality Not available.
Flu Activity Not available.
METAR LGAV 310950Z 04019KT CAVOK 29/16 Q1017 NOSIG
Pressure 30.04 in
Visibility -9999.0 miles
Clouds
Dew Point 35.0 °F
Humidity 14%
Rainfall 0.00 in
Snow Depth Not available.
UV 0.0 out of 12
Pollen Not available.
Air Quality Not available.
Flu Activity Not available.
METAR LGAV 310950Z 04019KT CAVOK 29/16 Q1017 NOSIG

10-Day Weather Forecast

×

Almanac

Astronomy

Aug. 31, 2015 Rise Set
Actual Time
Civil Twilight
Nautical Twilight
Astronomical Twilight
Moon
Length of Visible Light
Length of Day
Tomorrow will be .
, % of the Moon is Illuminated

Today's Extremes

Country Highs Country Lows

Community

WunderPhotos

Upload Photos

1,851,217 photos uploaded!

WunderBlogs® & News

Nearby

Air Quality

  Air Quality AQ Index Pollutant
Not available.

Snow Depth

Station Depth Elevation

Earthquake Activity

City Distance Mag. Time & Date
Minimum magnitude displayed is 2.5.

Coastal Water Temperatures

Place Temperature

Stations

Nearby Weather Stations

Station Location Temp. Windchill Dew Point Humidity Wind Precip. Elev Updated Type